Time;durP1;ratioP1;P1;durP2;ratioP2;P2;SDS_P1;SDS_P2;PMS_P1;PMS_P2;Temp;Humidity;BMP_temperature;BMP_pressure;BME280_temperature;BME280_humidity;BME280_pressure;Samples;Min_cycle;Max_cycle;Signal;HPM_P1;HPM_P2
2022/08/12 00:45:08;;;;;;;3.35;2.80;;;;;;;25.29;48.55;94982.03;5072800;28;20035;-55
2022/08/12 00:47:33;;;;;;;3.20;2.85;;;;;;;25.27;48.73;94995.47;5076051;28;20043;-54
2022/08/12 00:49:59;;;;;;;4.65;3.00;;;;;;;25.27;48.82;94990.00;5083760;28;20043;-57
2022/08/12 00:52:24;;;;;;;3.80;3.40;;;;;;;25.26;49.13;94994.03;5046639;28;20028;-57
2022/08/12 00:54:56;;;;;;;3.05;2.70;;;;;;;25.37;48.73;94993.84;5054570;28;20039;-55
2022/08/12 00:57:25;;;;;;;3.15;2.85;;;;;;;25.21;49.14;94989.38;5068978;28;20040;-55
2022/08/12 00:59:56;;;;;;;3.37;2.90;;;;;;;25.24;49.35;94999.25;5071333;28;20032;-55
2022/08/12 01:02:24;;;;;;;4.82;3.03;;;;;;;25.29;48.95;94998.44;5067660;28;20115;-55
2022/08/12 01:13:11;;;;;;;4.38;3.03;;;;;;;25.23;49.52;95016.19;5037578;28;20098;-57
2022/08/12 01:15:36;;;;;;;3.95;3.30;;;;;;;25.05;49.42;95008.75;5026625;28;20037;-57
2022/08/12 01:18:04;;;;;;;4.80;3.30;;;;;;;24.96;49.52;94993.47;5096639;28;20411;-58
2022/08/12 01:20:36;;;;;;;4.47;3.00;;;;;;;24.82;50.19;94989.19;5086439;28;20040;-56
2022/08/12 01:23:39;;;;;;;3.92;3.05;;;;;;;25.06;49.94;95013.69;5063428;28;20048;-56
2022/08/12 01:26:06;;;;;;;3.65;3.30;;;;;;;25.04;49.89;95021.69;5059673;28;20078;-57
2022/08/12 01:28:32;;;;;;;4.03;3.35;;;;;;;25.07;49.93;95026.13;5066522;28;20024;-55
2022/08/12 01:31:03;;;;;;;3.42;3.13;;;;;;;25.02;50.00;95023.47;5084072;28;20102;-55
2022/08/12 01:33:31;;;;;;;3.58;3.15;;;;;;;25.01;50.13;95020.00;5087984;28;20032;-55
2022/08/12 01:35:59;;;;;;;4.43;3.60;;;;;;;25.03;49.94;95016.75;5056393;28;20580;-55
2022/08/12 01:38:24;;;;;;;4.40;3.38;;;;;;;24.93;49.63;94994.50;5062382;28;20044;-56
2022/08/12 01:40:50;;;;;;;4.32;3.53;;;;;;;25.04;49.81;95016.22;5070511;28;20020;-56
2022/08/12 01:43:21;;;;;;;4.35;3.47;;;;;;;24.92;49.97;95009.41;5073404;28;20433;-56
2022/08/12 01:45:58;;;;;;;3.97;3.55;;;;;;;25.03;49.89;95014.75;5065774;28;20059;-55
2022/08/12 01:48:49;;;;;;;4.78;3.42;;;;;;;24.99;50.00;95019.78;5077296;28;20072;-57
2022/08/12 01:51:42;;;;;;;4.30;3.35;;;;;;;25.06;49.45;95013.69;5077965;28;20051;-56
2022/08/12 01:54:13;;;;;;;5.07;3.72;;;;;;;24.91;49.94;95001.75;5079137;28;20583;-54
2022/08/12 01:56:47;;;;;;;4.97;3.63;;;;;;;24.96;50.01;95009.88;5079724;28;20499;-56
2022/08/12 02:02:00;;;;;;;3.80;3.25;;;;;;;24.62;49.84;94947.28;5062585;28;20051;-58
2022/08/12 02:13:47;;;;;;;5.25;3.50;;;;;;;24.91;50.24;95002.47;5076277;28;20166;-56
2022/08/12 02:16:35;;;;;;;4.95;3.72;;;;;;;25.07;49.20;95004.25;5066459;28;20051;-55
2022/08/12 02:19:00;;;;;;;4.85;3.60;;;;;;;24.93;49.73;94999.97;5083011;28;20076;-56
2022/08/12 02:21:50;;;;;;;4.55;3.60;;;;;;;24.82;49.60;94971.34;5070225;28;20071;-57
2022/08/12 02:24:18;;;;;;;4.40;3.95;;;;;;;25.01;49.19;95003.59;5064354;28;20037;-57
2022/08/12 02:26:48;;;;;;;5.60;3.80;;;;;;;24.87;49.74;94985.66;5057948;28;20053;-55
2022/08/12 02:29:13;;;;;;;5.25;3.90;;;;;;;24.86;49.87;94999.84;5043280;28;20534;-57
2022/08/12 02:31:40;;;;;;;7.25;4.05;;;;;;;24.40;49.25;94920.34;5055894;28;20031;-55
2022/08/12 02:34:06;;;;;;;6.07;3.88;;;;;;;24.90;49.84;95003.75;5051074;28;20457;-57
2022/08/12 02:36:31;;;;;;;4.82;3.78;;;;;;;24.74;49.60;94970.47;5092540;28;20032;-54
2022/08/12 02:38:57;;;;;;;5.10;3.70;;;;;;;24.85;49.86;94992.91;5070136;28;20024;-56
2022/08/12 02:41:24;;;;;;;3.95;3.55;;;;;;;24.79;49.75;94983.31;5084195;28;20029;-57
2022/08/12 02:43:55;;;;;;;7.70;3.80;;;;;;;24.71;49.56;94971.50;5037092;28;20023;-56
2022/08/12 02:46:29;;;;;;;5.57;3.90;;;;;;;24.91;49.75;94991.53;5045488;28;20120;-55
2022/08/12 02:49:18;;;;;;;5.65;4.00;;;;;;;24.92;49.75;94993.03;5029327;28;20082;-56
2022/08/12 02:51:44;;;;;;;6.65;4.15;;;;;;;24.85;49.74;94974.50;5061901;28;20140;-54
2022/08/12 02:54:09;;;;;;;6.97;4.20;;;;;;;25.02;49.60;94991.44;5042081;28;20051;-54
2022/08/12 02:56:39;;;;;;;4.93;3.92;;;;;;;25.00;49.72;94995.94;5052532;28;20044;-54
2022/08/12 02:59:09;;;;;;;6.65;3.60;;;;;;;24.88;49.69;94970.00;5066754;28;20032;-58
2022/08/12 03:01:38;;;;;;;5.65;3.70;;;;;;;24.78;50.41;94959.97;5082749;28;20383;-58
2022/08/12 03:04:06;;;;;;;4.82;3.60;;;;;;;24.73;51.16;94963.53;5025624;28;20044;-57
2022/08/12 03:06:47;;;;;;;5.93;3.80;;;;;;;24.92;51.68;94998.50;5065352;28;20134;-54
2022/08/12 03:09:13;;;;;;;8.23;4.47;;;;;;;24.83;52.13;95001.59;5041966;28;20051;-55
2022/08/12 03:11:48;;;;;;;6.30;3.75;;;;;;;24.73;52.77;94974.47;5066621;28;20147;-56
2022/08/12 03:14:16;;;;;;;6.15;4.18;;;;;;;24.73;53.10;94979.94;5078526;28;20040;-56
2022/08/12 03:16:42;;;;;;;4.20;3.80;;;;;;;24.86;53.07;94997.84;5062399;28;20016;-53
2022/08/12 03:19:07;;;;;;;6.47;4.13;;;;;;;24.84;54.08;95008.56;5028865;28;20122;-58
2022/08/12 03:21:38;;;;;;;5.78;4.00;;;;;;;24.88;54.22;95003.50;5050533;28;20033;-55
2022/08/12 03:24:07;;;;;;;6.03;3.70;;;;;;;24.78;54.64;94998.94;5049988;28;20056;-56
2022/08/12 03:26:35;;;;;;;6.88;3.72;;;;;;;24.91;54.80;95007.94;5051053;28;20176;-55
2022/08/12 03:29:05;;;;;;;6.07;4.22;;;;;;;24.99;54.65;95008.84;5043690;28;20123;-54
2022/08/12 03:31:33;;;;;;;;;;;;;;;24.96;55.17;95015.34;5062088;28;20099;-54
2022/08/12 03:34:01;;;;;;;6.47;3.75;;;;;;;25.01;55.04;95017.25;5040639;28;19972;-57
2022/08/12 03:36:26;;;;;;;5.65;4.00;;;;;;;24.98;55.51;95004.63;5056426;28;20235;-55
2022/08/12 03:41:40;;;;;;;7.15;4.65;;;;;;;24.94;55.57;95001.44;5007649;28;20063;-53
2022/08/12 04:01:12;;;;;;;5.07;3.83;;;;;;;25.05;56.03;95034.09;5030459;28;20460;-57
2022/08/12 04:03:52;;;;;;;7.00;4.45;;;;;;;24.91;56.63;95018.88;5058750;28;20040;-55
2022/08/12 04:06:27;;;;;;;5.10;3.97;;;;;;;25.00;56.61;95029.44;5030481;28;20060;-56
2022/08/12 04:08:57;;;;;;;5.65;4.00;;;;;;;25.00;56.58;95029.44;5041085;28;20080;-55
2022/08/12 04:14:19;;;;;;;6.45;4.38;;;;;;;25.01;56.70;95022.72;5048606;28;19951;-55
2022/08/12 04:16:48;;;;;;;5.63;4.20;;;;;;;24.97;56.39;95030.44;5062303;28;20085;-56
2022/08/12 04:19:13;;;;;;;5.53;4.15;;;;;;;24.85;57.36;95031.88;5059321;28;20029;-55
2022/08/12 04:21:39;;;;;;;6.68;4.07;;;;;;;24.96;57.42;95029.00;5027793;28;20041;-56
2022/08/12 04:24:05;;;;;;;7.15;4.55;;;;;;;24.83;57.08;95007.06;5050965;28;20084;-54
2022/08/12 04:26:31;;;;;;;5.10;4.15;;;;;;;24.90;57.51;95025.59;5020131;28;20056;-53
2022/08/12 04:28:57;;;;;;;5.90;4.45;;;;;;;24.93;57.56;95024.56;5059651;28;20076;-55
2022/08/12 04:31:36;;;;;;;5.20;4.43;;;;;;;24.86;57.26;95016.97;5044296;28;20029;-56
2022/08/12 04:34:03;;;;;;;5.72;4.90;;;;;;;24.95;57.61;95024.78;5045364;28;20115;-58
2022/08/12 04:36:29;;;;;;;5.55;4.40;;;;;;;24.96;57.15;95026.25;5063872;28;20282;-58
2022/08/12 04:38:55;;;;;;;6.90;4.20;;;;;;;24.93;57.73;95021.84;5062715;28;20032;-55
2022/08/12 04:41:20;;;;;;;5.95;4.10;;;;;;;24.72;57.95;94990.09;5045787;28;20530;-55
2022/08/12 04:43:47;;;;;;;5.22;4.18;;;;;;;24.90;57.42;94997.53;5054196;28;20080;-58
2022/08/12 04:46:13;;;;;;;6.55;4.60;;;;;;;24.87;57.98;95007.53;5075122;28;20016;-56
2022/08/12 04:48:39;;;;;;;6.50;4.30;;;;;;;24.94;58.32;95028.03;5078494;28;20037;-54
2022/08/12 04:51:05;;;;;;;6.38;4.30;;;;;;;24.88;58.31;95028.09;5062474;28;20534;-55
2022/08/12 04:53:30;;;;;;;6.47;4.72;;;;;;;24.95;58.11;95022.03;5078699;28;20040;-55
2022/08/12 04:55:56;;;;;;;5.53;4.45;;;;;;;24.91;58.32;95024.31;5031768;28;20595;-55
2022/08/12 04:58:21;;;;;;;7.43;5.07;;;;;;;24.90;58.37;95017.41;5077467;28;20012;-53
2022/08/12 05:00:47;;;;;;;5.97;4.63;;;;;;;24.95;58.50;95019.31;5063111;28;20098;-54
2022/08/12 05:03:13;;;;;;;5.30;4.43;;;;;;;24.94;58.77;95017.09;5063311;28;20096;-61
2022/08/12 05:05:39;;;;;;;9.43;4.70;;;;;;;25.01;58.20;95020.00;5076454;28;20035;-57
2022/08/12 05:08:10;;;;;;;6.45;4.72;;;;;;;25.07;57.96;95020.66;5083840;28;20556;-56
2022/08/12 05:10:36;;;;;;;6.80;5.28;;;;;;;25.03;58.14;95020.22;5105071;28;20035;-57
2022/08/12 05:13:10;;;;;;;5.82;4.63;;;;;;;25.00;58.35;95010.31;5071510;28;20021;-55
2022/08/12 05:15:39;;;;;;;6.38;4.78;;;;;;;25.19;58.10;95021.97;5092875;28;20029;-56
2022/08/12 05:18:04;;;;;;;7.23;4.90;;;;;;;25.38;57.86;95028.84;5083465;28;20044;-54
2022/08/12 05:20:30;;;;;;;6.13;4.90;;;;;;;25.38;58.41;95028.09;5081725;28;20043;-56
2022/08/12 05:23:08;;;;;;;6.70;5.15;;;;;;;25.41;57.91;95016.88;5090153;28;20093;-55
2022/08/12 05:25:34;;;;;;;8.05;5.20;;;;;;;25.60;58.04;95022.25;5079485;28;20036;-54
2022/08/12 05:27:59;;;;;;;7.05;5.53;;;;;;;25.76;57.51;95034.97;5071717;28;20485;-55
2022/08/12 05:30:29;;;;;;;7.93;5.65;;;;;;;25.67;57.66;95038.81;5068495;28;21347;-55
2022/08/12 05:32:56;;;;;;;8.43;5.82;;;;;;;25.74;57.25;95032.00;5048267;28;20051;-57
2022/08/12 05:35:21;;;;;;;6.82;5.90;;;;;;;25.71;57.31;95033.03;5029816;28;20043;-55
2022/08/12 05:37:47;;;;;;;7.78;6.30;;;;;;;25.67;57.33;95024.41;5083591;28;20024;-56
2022/08/12 05:40:12;;;;;;;8.05;5.35;;;;;;;25.63;56.57;94993.88;5084811;28;20052;-56
2022/08/12 05:42:38;;;;;;;7.05;5.63;;;;;;;25.86;55.57;95023.06;5083418;28;20034;-56
2022/08/12 05:45:04;;;;;;;9.27;5.60;;;;;;;25.94;55.58;95041.06;5077344;28;20043;-55
2022/08/12 05:47:30;;;;;;;6.32;5.30;;;;;;;26.22;54.20;95030.34;5046570;28;20097;-55
2022/08/12 05:49:55;;;;;;;6.18;5.38;;;;;;;26.06;54.66;95034.13;5063195;28;20040;-56
2022/08/12 05:52:20;;;;;;;6.28;5.28;;;;;;;26.17;54.81;95039.38;5061952;28;20486;-58
2022/08/12 05:54:46;;;;;;;6.18;4.65;;;;;;;26.32;54.92;95042.34;5045510;28;20055;-56
2022/08/12 05:57:12;;;;;;;7.03;5.60;;;;;;;26.25;54.79;95042.97;5062879;28;20132;-57
2022/08/12 05:59:38;;;;;;;7.43;5.47;;;;;;;26.09;55.32;95030.34;5063249;28;20040;-57
2022/08/12 06:02:06;;;;;;;6.40;5.80;;;;;;;26.26;55.77;95044.44;5061915;28;20044;-57
2022/08/12 06:04:32;;;;;;;7.68;5.47;;;;;;;26.06;54.73;95004.00;5063520;28;20017;-56
2022/08/12 06:06:58;;;;;;;8.35;5.88;;;;;;;26.25;54.58;95026.53;5075249;28;20039;-56
2022/08/12 06:09:25;;;;;;;6.85;5.68;;;;;;;26.40;54.76;95027.50;5061489;28;20672;-56
2022/08/12 06:11:50;;;;;;;7.28;5.25;;;;;;;26.54;54.53;95042.63;5062188;28;20025;-57
2022/08/12 06:14:16;;;;;;;8.07;4.97;;;;;;;26.53;54.44;95040.44;5061380;28;20043;-57
2022/08/12 06:16:42;;;;;;;6.85;5.32;;;;;;;26.26;55.23;95022.53;5060896;28;20020;-56
2022/08/12 06:19:09;;;;;;;8.55;5.55;;;;;;;26.26;54.97;95008.84;5062464;28;20024;-55
2022/08/12 06:21:36;;;;;;;7.60;4.90;;;;;;;26.45;54.47;95031.38;5060784;28;20029;-56
2022/08/12 06:24:02;;;;;;;6.80;4.50;;;;;;;26.50;53.53;95052.44;5060665;28;20124;-55
2022/08/12 06:26:27;;;;;;;6.60;4.38;;;;;;;26.16;53.93;94991.38;5041739;28;20090;-56
2022/08/12 06:28:54;;;;;;;5.15;4.07;;;;;;;26.57;53.00;95040.84;5058634;28;20059;-57
2022/08/12 06:31:19;;;;;;;5.90;3.70;;;;;;;26.33;53.05;95006.22;5059166;28;20043;-57
2022/08/12 06:33:47;;;;;;;5.20;3.67;;;;;;;26.60;52.50;95023.34;5059392;28;20033;-57
2022/08/12 06:36:13;;;;;;;4.45;3.72;;;;;;;26.70;52.41;95046.31;5042503;28;20044;-57
2022/08/12 06:38:39;;;;;;;6.25;3.45;;;;;;;26.60;52.73;95040.53;5061536;28;20041;-56
2022/08/12 06:43:51;;;;;;;4.78;3.30;;;;;;;26.69;51.82;95044.84;5061998;28;20035;-56
2022/08/12 06:46:17;;;;;;;4.70;3.25;;;;;;;26.68;51.71;95035.88;5064616;28;20036;-54
2022/08/12 06:48:42;;;;;;;4.45;3.50;;;;;;;26.56;52.32;95028.41;5061383;28;20263;-59
2022/08/12 06:51:08;;;;;;;4.80;3.50;;;;;;;26.74;51.83;95043.97;5061351;28;20043;-58
2022/08/12 06:53:34;;;;;;;4.57;3.38;;;;;;;26.84;51.75;95037.53;5061084;28;20064;-57
2022/08/12 06:55:59;;;;;;;4.25;3.08;;;;;;;26.22;51.66;94977.56;5074976;28;20055;-58
2022/08/12 06:58:29;;;;;;;4.20;3.55;;;;;;;26.66;51.50;95021.25;5060732;28;20020;-55
2022/08/12 07:00:56;;;;;;;4.47;3.40;;;;;;;26.45;50.84;94976.63;5059258;28;20708;-57
2022/08/12 07:03:27;;;;;;;5.03;3.58;;;;;;;26.84;51.05;95030.03;5059316;28;20406;-58
2022/08/12 07:05:54;;;;;;;3.92;3.50;;;;;;;26.78;51.24;95029.41;5042766;28;20047;-57
2022/08/12 07:08:20;;;;;;;3.90;3.35;;;;;;;26.70;51.14;95010.69;5064564;28;20092;-57
2022/08/12 07:10:52;;;;;;;5.78;3.80;;;;;;;26.87;51.40;95028.97;5063325;28;20411;-56
2022/08/12 07:13:18;;;;;;;4.90;3.75;;;;;;;26.91;50.97;95017.72;5061998;28;20626;-60
2022/08/12 07:15:44;;;;;;;5.45;4.20;;;;;;;26.83;50.66;95003.91;5060812;28;20523;-56
2022/08/12 07:18:18;;;;;;;6.57;4.00;;;;;;;26.96;50.50;95006.63;5060294;28;20051;-60
2022/08/12 07:20:46;;;;;;;4.82;4.22;;;;;;;26.82;51.04;95012.66;5060046;28;20032;-58
2022/08/12 07:23:12;;;;;;;4.88;3.72;;;;;;;26.59;50.54;94972.56;5060551;28;20045;-57
2022/08/12 07:25:38;;;;;;;5.70;4.30;;;;;;;26.82;51.25;94996.94;5060644;28;20055;-55
2022/08/12 07:28:32;;;;;;;8.45;4.40;;;;;;;27.09;50.46;95025.75;5056479;28;20033;-56
2022/08/12 07:30:58;;;;;;;7.43;4.97;;;;;;;27.28;50.00;94998.91;5057416;28;20045;-59
2022/08/12 07:33:26;;;;;;;5.80;4.45;;;;;;;26.95;50.58;95018.09;5070420;28;20399;-59
2022/08/12 07:35:53;;;;;;;13.15;4.70;;;;;;;27.13;49.80;95011.72;5096436;28;20136;-58
2022/08/12 07:38:38;;;;;;;7.97;4.32;;;;;;;27.31;50.07;95025.25;5070030;28;20576;-58
2022/08/12 07:41:15;;;;;;;6.97;4.13;;;;;;;27.16;49.96;95003.19;5078557;28;20047;-59
2022/08/12 07:43:46;;;;;;;5.00;4.05;;;;;;;27.39;49.18;95015.06;5074370;28;20225;-60
2022/08/12 07:46:13;;;;;;;6.68;3.85;;;;;;;27.67;48.47;95017.88;5067386;28;20032;-59
2022/08/12 07:48:52;;;;;;;5.20;3.97;;;;;;;27.62;48.65;95010.53;5067720;28;20547;-58
2022/08/12 07:51:18;;;;;;;6.78;4.25;;;;;;;28.05;46.67;95014.88;5063395;28;20029;-54
2022/08/12 07:53:44;;;;;;;5.63;3.90;;;;;;;28.28;46.58;95018.50;5078814;28;20056;-56
2022/08/12 07:56:09;;;;;;;5.57;3.85;;;;;;;28.28;46.57;94999.28;5064639;28;20044;-55
2022/08/12 07:58:38;;;;;;;5.95;3.80;;;;;;;28.35;45.82;95010.28;5030732;28;20020;-56
2022/08/12 08:01:09;;;;;;;4.72;3.80;;;;;;;28.59;45.85;95011.88;5052732;28;20043;-53
2022/08/12 08:03:35;;;;;;;5.70;3.55;;;;;;;28.44;44.30;95018.03;5064504;28;20029;-55
2022/08/12 08:06:01;;;;;;;3.88;3.05;;;;;;;28.47;43.75;95005.22;5072039;28;20648;-54
2022/08/12 08:08:27;;;;;;;4.65;2.60;;;;;;;28.64;43.38;95002.72;5082906;28;20036;-54
2022/08/12 08:12:52;;;;;;;5.50;2.95;;;;;;;28.64;43.82;95013.72;5055886;28;20024;-55
2022/08/12 08:13:41;;;;;;;3.40;2.90;;;;;;;28.63;43.43;94995.78;5057387;28;20746;-55
2022/08/12 08:16:07;;;;;;;4.15;2.70;;;;;;;28.62;42.98;95002.53;5055514;28;20033;-55
2022/08/12 08:18:32;;;;;;;4.30;2.70;;;;;;;28.72;43.00;95010.50;5070875;28;20040;-53
2022/08/12 08:20:58;;;;;;;3.75;2.70;;;;;;;28.66;43.20;95000.19;5063115;28;20041;-55
2022/08/12 08:24:13;;;;;;;4.43;2.95;;;;;;;28.73;42.40;95000.97;5026935;28;20037;-55
2022/08/12 08:26:14;;;;;;;4.05;2.67;;;;;;;28.58;42.96;94991.16;5048901;28;20078;-55
2022/08/12 08:28:40;;;;;;;3.88;2.58;;;;;;;28.78;42.56;95000.06;5036608;28;20139;-57
2022/08/12 08:31:05;;;;;;;3.53;2.90;;;;;;;28.81;42.71;94985.22;5043732;28;20770;-55
2022/08/12 08:33:31;;;;;;;4.05;2.70;;;;;;;28.67;42.63;94990.69;5059934;28;20101;-56
2022/08/12 08:35:57;;;;;;;4.07;3.03;;;;;;;28.73;42.59;94998.22;5060783;28;20110;-55
2022/08/12 08:38:23;;;;;;;4.43;3.17;;;;;;;28.86;42.23;95000.84;5071314;28;20498;-56
2022/08/12 08:43:32;;;;;;;3.30;2.72;;;;;;;28.63;43.17;94991.00;5041185;28;20044;-54
2022/08/12 08:46:00;;;;;;;3.83;3.10;;;;;;;28.74;42.57;94974.97;5041770;28;20071;-54
2022/08/12 08:48:29;;;;;;;3.17;2.60;;;;;;;28.57;43.49;94984.22;5043072;28;20048;-55
2022/08/12 08:50:54;;;;;;;4.97;2.88;;;;;;;28.74;43.26;94980.47;5025897;28;20427;-56
2022/08/12 08:53:20;;;;;;;5.97;2.75;;;;;;;28.65;42.64;94954.75;5045893;28;20048;-56
2022/08/12 08:55:45;;;;;;;3.42;2.60;;;;;;;28.56;43.38;94974.50;5057985;28;20518;-55
2022/08/12 08:58:11;;;;;;;3.40;2.63;;;;;;;28.68;42.04;94981.16;5043261;28;20090;-56
2022/08/12 09:00:39;;;;;;;4.53;2.97;;;;;;;28.78;42.04;94986.31;5044176;28;20179;-56
2022/08/12 09:03:05;;;;;;;3.15;2.50;;;;;;;28.76;41.94;94972.38;5029362;28;20037;-53
2022/08/12 09:05:31;;;;;;;4.00;2.80;;;;;;;28.76;41.62;94983.38;5066228;28;20040;-55
2022/08/12 09:07:59;;;;;;;3.63;2.45;;;;;;;28.96;41.19;94965.28;5081358;28;20860;-54
2022/08/12 09:10:24;;;;;;;4.38;2.72;;;;;;;28.79;41.19;94960.31;5035740;28;20021;-55
2022/08/12 09:15:34;;;;;;;3.15;2.63;;;;;;;29.04;40.71;94964.00;5033627;28;20610;-53
2022/08/12 09:18:00;;;;;;;3.83;2.35;;;;;;;28.94;40.39;94960.34;5057152;28;20036;-54
2022/08/12 09:20:27;;;;;;;3.97;2.75;;;;;;;28.67;40.91;94963.94;5068874;28;20055;-58
2022/08/12 09:22:56;;;;;;;2.83;2.50;;;;;;;28.25;41.40;94945.41;5070508;28;20021;-60
2022/08/12 09:25:25;;;;;;;5.75;2.65;;;;;;;28.20;41.87;94921.59;5037628;28;20049;-58
2022/08/12 09:27:53;;;;;;;3.35;3.03;;;;;;;28.34;41.16;94958.66;5041892;28;20041;-59
2022/08/12 09:30:20;;;;;;;4.23;2.70;;;;;;;28.56;41.72;94969.00;5040307;28;20046;-57
2022/08/12 09:32:49;;;;;;;6.03;2.67;;;;;;;28.23;41.25;94953.47;5057476;28;20089;-57
2022/08/12 09:35:32;;;;;;;3.97;2.67;;;;;;;28.22;41.37;94957.53;5069990;28;20040;-56
2022/08/12 09:38:00;;;;;;;3.55;2.90;;;;;;;28.21;42.28;94955.31;5051745;28;20063;-61
2022/08/12 09:40:25;;;;;;;3.88;2.45;;;;;;;28.20;41.86;94920.88;5073203;28;20609;-57
2022/08/12 09:45:35;;;;;;;3.50;2.63;;;;;;;28.47;41.36;94955.78;5049601;28;20556;-57
2022/08/12 09:48:07;;;;;;;3.42;2.60;;;;;;;28.70;39.94;94924.38;5042202;28;20030;-56
2022/08/12 09:50:34;;;;;;;5.18;2.80;;;;;;;29.02;40.10;94955.56;5043128;28;20063;-56
2022/08/12 09:53:15;;;;;;;4.15;2.30;;;;;;;29.31;39.31;94956.91;5041900;28;20522;-58
2022/08/12 09:55:47;;;;;;;5.13;2.97;;;;;;;29.28;38.97;94955.25;5053112;28;20039;-57
2022/08/12 09:58:15;;;;;;;3.05;2.60;;;;;;;29.30;38.49;94930.69;5050362;28;20085;-58
2022/08/12 10:00:45;;;;;;;3.97;2.67;;;;;;;29.45;38.73;94941.69;5080885;28;20072;-56
2022/08/12 10:03:11;;;;;;;3.78;2.50;;;;;;;29.59;38.12;94948.47;5021084;28;20033;-56
2022/08/12 10:05:42;;;;;;;3.72;2.88;;;;;;;29.12;38.33;94882.25;5060124;28;20135;-57
2022/08/12 10:08:10;;;;;;;3.50;2.67;;;;;;;29.62;38.74;94944.63;5081353;28;20037;-54
2022/08/12 10:13:40;;;;;;;6.45;5.18;;;;;;;29.30;38.10;94881.19;5042160;28;20021;-60
2022/08/12 10:13:43;;;;;;;4.65;2.90;;;;;;;29.76;37.99;94939.09;5058360;28;20024;-58
2022/08/12 10:16:16;;;;;;;4.78;3.10;;;;;;;29.69;38.11;94934.31;5039592;28;20053;-56
2022/08/12 10:18:52;;;;;;;5.10;2.97;;;;;;;29.66;38.42;94933.97;5057960;28;20033;-57
2022/08/12 10:21:18;;;;;;;4.43;2.58;;;;;;;29.43;38.56;94905.72;5044771;28;20033;-58
2022/08/12 10:23:45;;;;;;;3.83;2.70;;;;;;;29.61;38.47;94923.88;5077288;28;20035;-57
2022/08/12 10:31:40;;;;;;;3.15;2.65;;;;;;;29.65;38.32;94910.47;5039452;28;20093;-55
2022/08/12 10:34:08;;;;;;;4.10;3.25;;;;;;;29.77;38.57;94913.00;5013134;28;20555;-58
2022/08/12 10:36:37;;;;;;;3.45;2.92;;;;;;;29.70;38.42;94922.03;5002427;28;20666;-58
2022/08/12 10:39:03;;;;;;;3.25;2.50;;;;;;;29.74;37.95;94914.13;5012711;28;20081;-57
2022/08/12 10:44:14;;;;;;;3.60;2.50;;;;;;;29.43;38.10;94889.22;5008328;28;20047;-57
2022/08/12 10:46:41;;;;;;;4.55;2.65;;;;;;;29.17;38.34;94844.84;5030106;28;20457;-59
2022/08/12 10:49:06;;;;;;;4.22;2.70;;;;;;;29.66;38.45;94907.19;5023986;28;20843;-56
2022/08/12 10:51:32;;;;;;;3.83;2.70;;;;;;;29.62;39.65;94903.31;5008753;28;20066;-55
2022/08/12 10:53:58;;;;;;;4.00;2.55;;;;;;;29.81;38.72;94913.41;5014140;28;20586;-55
2022/08/12 10:56:23;;;;;;;4.45;2.53;;;;;;;29.68;38.18;94888.78;5035617;28;20034;-56
2022/08/12 10:58:49;;;;;;;3.95;2.85;;;;;;;29.25;38.50;94843.56;5022295;28;20018;-54
2022/08/12 11:01:15;;;;;;;3.05;2.30;;;;;;;29.34;39.14;94892.53;5028390;28;20103;-55
2022/08/12 11:03:40;;;;;;;6.53;2.40;;;;;;;28.95;39.08;94821.56;5010871;28;20332;-57
2022/08/12 11:06:08;;;;;;;4.15;2.92;;;;;;;29.07;38.86;94819.88;4996526;28;20118;-58
2022/08/12 11:08:36;;;;;;;3.03;2.38;;;;;;;29.56;38.14;94891.78;5007732;28;20428;-56
2022/08/12 11:11:08;;;;;;;4.57;2.70;;;;;;;29.64;38.14;94884.97;5017481;28;20075;-57
2022/08/12 11:13:35;;;;;;;3.25;2.35;;;;;;;29.72;38.48;94891.19;5019876;28;20515;-55
2022/08/12 11:16:00;;;;;;;2.85;2.55;;;;;;;29.57;38.89;94893.25;5000635;28;20101;-56
2022/08/12 11:18:27;;;;;;;4.28;2.72;;;;;;;29.65;39.45;94877.44;5013744;28;20029;-56
2022/08/12 11:20:53;;;;;;;3.15;2.50;;;;;;;29.96;39.05;94880.31;5009350;28;20037;-57
2022/08/12 11:23:19;;;;;;;3.42;2.70;;;;;;;29.92;39.30;94877.19;5006462;28;20041;-56
2022/08/12 11:25:45;;;;;;;3.33;2.78;;;;;;;29.98;39.24;94894.25;5034003;28;20067;-57
2022/08/12 11:28:12;;;;;;;3.70;2.65;;;;;;;29.99;39.55;94884.00;5038002;28;20045;-56
2022/08/12 11:30:37;;;;;;;3.00;2.70;;;;;;;30.13;38.54;94885.94;5057609;28;20039;-59
2022/08/12 11:33:03;;;;;;;3.47;3.17;;;;;;;30.06;38.79;94883.97;5030030;28;20040;-56
2022/08/12 11:35:28;;;;;;;3.22;2.80;;;;;;;29.84;37.75;94857.22;5047725;28;20499;-58
2022/08/12 11:37:54;;;;;;;3.15;2.85;;;;;;;29.82;37.12;94831.53;5057381;28;20117;-58
2022/08/12 11:40:19;;;;;;;3.47;2.50;;;;;;;30.04;37.23;94869.28;5039965;28;20033;-58
2022/08/12 11:42:45;;;;;;;3.00;2.70;;;;;;;29.67;38.39;94836.31;5037554;28;20207;-58
2022/08/12 11:45:10;;;;;;;3.05;2.70;;;;;;;29.52;38.56;94819.84;5052525;28;20582;-57
2022/08/12 11:47:36;;;;;;;5.90;3.10;;;;;;;29.97;38.70;94859.00;5061263;28;20040;-58
2022/08/12 11:50:02;;;;;;;4.18;2.95;;;;;;;30.02;38.61;94867.06;5064040;28;20036;-57
2022/08/12 11:52:28;;;;;;;5.85;2.72;;;;;;;29.56;39.21;94798.19;5062602;28;20036;-56
2022/08/12 11:54:54;;;;;;;6.25;2.92;;;;;;;30.15;38.29;94871.59;5059420;28;20115;-58
2022/08/12 11:57:19;;;;;;;3.33;2.63;;;;;;;30.04;38.09;94864.47;5061556;28;20040;-56
2022/08/12 11:59:44;;;;;;;3.15;2.63;;;;;;;29.91;38.08;94823.41;5061151;28;20388;-57
2022/08/12 12:02:10;;;;;;;3.22;2.65;;;;;;;29.94;37.87;94822.31;5060313;28;20032;-58
2022/08/12 12:04:35;;;;;;;3.28;2.47;;;;;;;29.98;37.99;94828.16;5062320;28;20411;-56
2022/08/12 12:07:01;;;;;;;3.13;2.30;;;;;;;30.25;37.86;94842.91;5060754;28;20025;-58
2022/08/12 12:09:26;;;;;;;3.75;2.65;;;;;;;30.29;38.14;94862.53;5062382;28;20048;-56
2022/08/12 12:11:52;;;;;;;3.40;2.65;;;;;;;30.38;37.84;94861.97;5058007;28;20045;-56
2022/08/12 12:14:17;;;;;;;2.60;2.33;;;;;;;30.32;38.15;94855.91;5060614;28;20507;-58
2022/08/12 12:16:43;;;;;;;3.00;2.70;;;;;;;30.25;37.76;94824.38;5056238;28;20029;-58
2022/08/12 12:19:08;;;;;;;4.65;2.50;;;;;;;30.45;37.98;94864.69;5060824;28;21273;-56
2022/08/12 12:21:34;;;;;;;2.58;2.38;;;;;;;29.95;38.09;94790.72;5060067;28;20058;-57
2022/08/12 12:23:59;;;;;;;5.20;3.20;;;;;;;30.00;37.98;94789.03;5063001;28;20822;-56
2022/08/12 12:26:26;;;;;;;3.50;2.55;;;;;;;29.89;37.82;94781.19;5060445;28;20063;-57
2022/08/12 12:28:51;;;;;;;4.68;2.50;;;;;;;29.64;37.74;94743.84;5058582;28;20226;-57
2022/08/12 12:31:17;;;;;;;4.63;2.58;;;;;;;30.35;37.06;94860.34;5064435;28;20021;-57
2022/08/12 12:33:42;;;;;;;3.42;2.55;;;;;;;30.28;37.88;94845.28;5060288;28;20457;-56
2022/08/12 12:36:08;;;;;;;3.75;2.67;;;;;;;30.18;37.50;94849.94;5074082;28;20291;-57
2022/08/12 12:38:33;;;;;;;3.08;2.63;;;;;;;29.70;37.25;94773.38;5070511;28;20043;-58
2022/08/12 12:40:59;;;;;;;3.40;2.42;;;;;;;30.11;37.34;94830.66;5070264;28;20059;-58
2022/08/12 12:43:24;;;;;;;4.22;2.70;;;;;;;29.74;36.96;94770.22;5069147;28;20040;-58
2022/08/12 12:45:50;;;;;;;4.45;2.72;;;;;;;29.99;37.45;94828.91;5070026;28;20036;-57
2022/08/12 12:48:17;;;;;;;4.47;3.00;;;;;;;29.60;38.02;94815.06;5051058;28;20036;-57
2022/08/12 12:50:44;;;;;;;3.65;3.10;;;;;;;29.52;37.60;94764.81;5035676;28;20132;-58
2022/08/12 12:53:11;;;;;;;3.83;2.85;;;;;;;29.96;37.76;94825.22;5042916;28;20138;-57
2022/08/12 12:55:36;;;;;;;4.72;2.83;;;;;;;29.69;37.99;94782.91;5044384;28;20032;-58
2022/08/12 12:58:08;;;;;;;2.97;2.67;;;;;;;29.53;37.80;94810.31;5071933;28;20028;-56
2022/08/12 13:00:34;;;;;;;3.42;2.63;;;;;;;29.32;38.89;94823.56;5044815;28;21329;-58
2022/08/12 13:02:59;;;;;;;3.45;2.80;;;;;;;29.16;38.99;94789.06;5035982;28;20053;-57
2022/08/12 13:05:33;;;;;;;4.65;3.00;;;;;;;29.85;38.22;94797.38;5081486;28;20102;-57
2022/08/12 13:08:02;;;;;;;3.42;2.78;;;;;;;29.35;38.58;94773.66;5069011;28;20036;-56
2022/08/12 13:10:30;;;;;;;;;;;;;;;29.44;38.30;94813.63;5075620;28;20084;-57
2022/08/12 13:12:56;;;;;;;4.43;2.95;;;;;;;29.33;38.07;94803.75;5047359;28;19917;-56
2022/08/12 13:15:22;;;;;;;3.65;2.90;;;;;;;29.80;38.16;94801.78;5048389;28;20475;-56
2022/08/12 13:17:49;;;;;;;5.55;2.95;;;;;;;30.09;38.22;94794.69;5050524;28;20037;-57
2022/08/12 13:20:18;;;;;;;3.65;2.75;;;;;;;29.87;37.71;94768.00;5068694;28;20576;-57
2022/08/12 13:22:44;;;;;;;4.18;2.80;;;;;;;30.29;37.15;94796.41;5063319;28;20020;-56
2022/08/12 13:25:11;;;;;;;3.65;2.90;;;;;;;30.31;37.54;94804.84;5041298;28;20025;-57